Napoli Jet — IQTJ — position and weather

sailwx.info

Track history (hours):
 
Tides and Currents Weather Stations Pressure Air Temp Water Temp Dewpoint Dewpoint Depression Visibility Wind Speed Wind Dir Waves Ship Positions

Napoli Jet

Last reported at 2016-Apr-28 15:04 UTC. Time now 2016-Apr-28 19:54 UTC.
Position N 40°42' E 014°29'.

Length 41 m; draft 1.3 m.

Type: Ship. MMSI: 247051400.

Date/timePositionNaut miles runAvg speedWind from/ knotsBaromVisibWave heightAir tempDewpointWater temp
2016-Apr-28 15:04N 40°42' E 014°29'611.0
2016-Apr-28 14:32N 40°38' E 014°23'8 7.8
2016-Apr-28 13:33N 40°33' E 014°14'1714.6
2016-Apr-28 12:25N 40°50' E 014°16'1719.3
2016-Apr-28 11:32N 40°33' E 014°14'0 0.3
2016-Apr-28 10:33N 40°34' E 014°14'0 0.0
2016-Apr-28 09:33N 40°34' E 014°14'0 0.3
2016-Apr-28 08:34N 40°33' E 014°14'8 7.6
2016-Apr-28 07:33N 40°38' E 014°23'0 0.0
2016-Apr-28 06:20N 40°38' E 014°23'6 7.6
2016-Apr-28 05:33N 40°42' E 014°29'0 0.0
2016-Apr-27 16:33N 40°42' E 014°28'1413.5
2016-Apr-27 15:33N 40°33' E 014°14'8 7.6
2016-Apr-27 14:33N 40°38' E 014°23'8 7.7
2016-Apr-27 13:33N 40°33' E 014°14'0 0.0
2016-Apr-27 12:33N 40°33' E 014°14'0 0.0
2016-Apr-27 11:33N 40°33' E 014°14'3 3.4
2016-Apr-27 10:33N 40°36' E 014°17'1413.3
2016-Apr-27 09:31N 40°50' E 014°15'1717.7
2016-Apr-27 08:33N 40°33' E 014°14'0 0.0
2016-Apr-27 07:33N 40°33' E 014°14'1212.2
2016-Apr-27 06:34N 40°41' E 014°26'5 0.3
2016-Apr-26 14:33N 40°38' E 014°23'8 7.6
2016-Apr-26 13:33N 40°33' E 014°14'17 7.9
2016-Apr-26 11:26N 40°50' E 014°16'1719.2
2016-Apr-26 10:33N 40°33' E 014°14'0 0.3
2016-Apr-26 09:34N 40°34' E 014°14'0 0.3
2016-Apr-26 08:33N 40°33' E 014°14'8 7.6
2016-Apr-26 07:33N 40°38' E 014°23'0 0.1
2016-Apr-26 06:33N 40°38' E 014°23'6 5.8
2016-Apr-26 05:33N 40°42' E 014°29'0 0.0
2016-Apr-25 10:12N 40°42' E 014°29'0 0.0
2016-Apr-25 09:27N 40°42' E 014°29'0 0.0
2016-Apr-25 08:32N 40°42' E 014°29'0 0.0
2016-Apr-25 07:33N 40°42' E 014°29'0 0.1
2016-Apr-25 06:33N 40°42' E 014°29'0 0.1
2016-Apr-25 05:31N 40°42' E 014°29'0 0.0
2016-Apr-24 09:12N 40°42' E 014°29'0 0.0
2016-Apr-24 08:33N 40°42' E 014°29'0 0.0
2016-Apr-24 07:33N 40°42' E 014°29'0 0.0
2016-Apr-24 06:23N 40°42' E 014°29'0 0.0
2016-Apr-23 06:31N 40°42' E 014°28'0 0.2
2016-Apr-23 05:33N 40°42' E 014°29'0 0.0
2016-Apr-22 15:06N 40°42' E 014°29'610.9
2016-Apr-22 14:33N 40°38' E 014°23'8 7.6
2016-Apr-22 13:33N 40°33' E 014°14'7 7.6
2016-Apr-22 12:34N 40°38' E 014°22'7 7.3
2016-Apr-22 11:33N 40°34' E 014°14'0 0.3
2016-Apr-22 10:33N 40°33' E 014°14'1713.6
2016-Apr-22 09:19N 40°50' E 014°16'1721.8
2016-Apr-22 08:33N 40°33' E 014°14'0 0.0
2016-Apr-22 07:34N 40°33' E 014°14'1413.5
2016-Apr-22 06:34N 40°42' E 014°29'0 0.1
2016-Apr-22 05:34N 40°42' E 014°29'0 0.0
2016-Apr-21 15:08N 40°42' E 014°29'610.4
2016-Apr-21 14:33N 40°38' E 014°23'8 7.6
2016-Apr-21 13:33N 40°33' E 014°14'1413.2
2016-Apr-21 12:32N 40°42' E 014°29'0 0.0
2016-Apr-21 11:33N 40°42' E 014°29'0 0.0
2016-Apr-21 10:33N 40°42' E 014°29'0 0.0
2016-Apr-21 06:27N 40°42' E 014°29'0 0.0
2016-Apr-21 05:34N 40°42' E 014°29'1 0.1
2016-Apr-20 16:34N 40°42' E 014°27'1312.5
2016-Apr-20 15:33N 40°33' E 014°14'1713.1
2016-Apr-20 14:16N 40°50' E 014°15'1621.9
2016-Apr-20 13:34N 40°35' E 014°15'7 6.6
2016-Apr-20 12:33N 40°38' E 014°23'8 7.7
2016-Apr-20 11:33N 40°33' E 014°14'0 0.0
2016-Apr-20 10:33N 40°33' E 014°14'1713.7
2016-Apr-20 09:20N 40°50' E 014°16'1721.5
2016-Apr-20 08:34N 40°33' E 014°14'0 0.0
2016-Apr-20 07:34N 40°33' E 014°14'1313.2
2016-Apr-20 06:33N 40°42' E 014°28'1 0.9
2016-Apr-20 05:33N 40°42' E 014°29'0 0.0
2016-Apr-19 15:19N 40°42' E 014°29'6 7.9
2016-Apr-19 14:34N 40°38' E 014°23'8 7.6
2016-Apr-19 13:33N 40°33' E 014°14'1711.2
2016-Apr-19 12:04N 40°50' E 014°16'0 0.1
2016-Apr-19 11:28N 40°50' E 014°16'1718.4
2016-Apr-19 10:33N 40°33' E 014°14'0 0.0
2016-Apr-19 09:31N 40°33' E 014°14'0 0.0
2016-Apr-19 08:33N 40°33' E 014°14'8 7.7
2016-Apr-19 07:33N 40°38' E 014°23'0 0.2
2016-Apr-19 06:34N 40°38' E 014°23'6 5.8
2016-Apr-19 05:33N 40°42' E 014°29'0 0.0
2016-Apr-19 04:33N 40°42' E 014°29'0 0.0
2016-Apr-18 16:33N 40°42' E 014°28'1413.7
2016-Apr-18 15:33N 40°33' E 014°14'  
Track history (hours):
 
Tides and Currents Weather Stations Pressure Air Temp Water Temp Dewpoint Dewpoint Depression Visibility Wind Speed Wind Dir Waves Ship Positions

Napoli Jet

Last reported at 2016-Apr-28 15:04 UTC. Time now 2016-Apr-28 19:54 UTC.
Position N 40°42' E 014°29'.

Length 41 m; draft 1.3 m.

Type: Ship. MMSI: 247051400.

Date/timePositionNaut miles runAvg speedWind from/ knotsBaromVisibWave heightAir tempDewpointWater temp
2016-Apr-28 15:04N 40°42' E 014°29'611.0
2016-Apr-28 14:32N 40°38' E 014°23'8 7.8
2016-Apr-28 13:33N 40°33' E 014°14'1714.6
2016-Apr-28 12:25N 40°50' E 014°16'1719.3
2016-Apr-28 11:32N 40°33' E 014°14'0 0.3
2016-Apr-28 10:33N 40°34' E 014°14'0 0.0
2016-Apr-28 09:33N 40°34' E 014°14'0 0.3
2016-Apr-28 08:34N 40°33' E 014°14'8 7.6
2016-Apr-28 07:33N 40°38' E 014°23'0 0.0
2016-Apr-28 06:20N 40°38' E 014°23'6 7.6
2016-Apr-28 05:33N 40°42' E 014°29'0 0.0
2016-Apr-27 16:33N 40°42' E 014°28'1413.5
2016-Apr-27 15:33N 40°33' E 014°14'8 7.6
2016-Apr-27 14:33N 40°38' E 014°23'8 7.7
2016-Apr-27 13:33N 40°33' E 014°14'0 0.0
2016-Apr-27 12:33N 40°33' E 014°14'0 0.0
2016-Apr-27 11:33N 40°33' E 014°14'3 3.4
2016-Apr-27 10:33N 40°36' E 014°17'1413.3
2016-Apr-27 09:31N 40°50' E 014°15'1717.7
2016-Apr-27 08:33N 40°33' E 014°14'0 0.0
2016-Apr-27 07:33N 40°33' E 014°14'1212.2
2016-Apr-27 06:34N 40°41' E 014°26'5 0.3
2016-Apr-26 14:33N 40°38' E 014°23'8 7.6
2016-Apr-26 13:33N 40°33' E 014°14'17 7.9
2016-Apr-26 11:26N 40°50' E 014°16'1719.2
2016-Apr-26 10:33N 40°33' E 014°14'0 0.3
2016-Apr-26 09:34N 40°34' E 014°14'0 0.3
2016-Apr-26 08:33N 40°33' E 014°14'8 7.6
2016-Apr-26 07:33N 40°38' E 014°23'0 0.1
2016-Apr-26 06:33N 40°38' E 014°23'6 5.8
2016-Apr-26 05:33N 40°42' E 014°29'0 0.0
2016-Apr-25 10:12N 40°42' E 014°29'0 0.0
2016-Apr-25 09:27N 40°42' E 014°29'0 0.0
2016-Apr-25 08:32N 40°42' E 014°29'0 0.0
2016-Apr-25 07:33N 40°42' E 014°29'0 0.1
2016-Apr-25 06:33N 40°42' E 014°29'0 0.1
2016-Apr-25 05:31N 40°42' E 014°29'0 0.0
2016-Apr-24 09:12N 40°42' E 014°29'0 0.0
2016-Apr-24 08:33N 40°42' E 014°29'0 0.0
2016-Apr-24 07:33N 40°42' E 014°29'0 0.0
2016-Apr-24 06:23N 40°42' E 014°29'0 0.0
2016-Apr-23 06:31N 40°42' E 014°28'0 0.2
2016-Apr-23 05:33N 40°42' E 014°29'0 0.0
2016-Apr-22 15:06N 40°42' E 014°29'610.9
2016-Apr-22 14:33N 40°38' E 014°23'8 7.6
2016-Apr-22 13:33N 40°33' E 014°14'7 7.6
2016-Apr-22 12:34N 40°38' E 014°22'7 7.3
2016-Apr-22 11:33N 40°34' E 014°14'0 0.3
2016-Apr-22 10:33N 40°33' E 014°14'1713.6
2016-Apr-22 09:19N 40°50' E 014°16'1721.8
2016-Apr-22 08:33N 40°33' E 014°14'0 0.0
2016-Apr-22 07:34N 40°33' E 014°14'1413.5
2016-Apr-22 06:34N 40°42' E 014°29'0 0.1
2016-Apr-22 05:34N 40°42' E 014°29'0 0.0
2016-Apr-21 15:08N 40°42' E 014°29'610.4
2016-Apr-21 14:33N 40°38' E 014°23'8 7.6
2016-Apr-21 13:33N 40°33' E 014°14'1413.2
2016-Apr-21 12:32N 40°42' E 014°29'0 0.0
2016-Apr-21 11:33N 40°42' E 014°29'0 0.0
2016-Apr-21 10:33N 40°42' E 014°29'0 0.0
2016-Apr-21 06:27N 40°42' E 014°29'0 0.0
2016-Apr-21 05:34N 40°42' E 014°29'1 0.1
2016-Apr-20 16:34N 40°42' E 014°27'1312.5
2016-Apr-20 15:33N 40°33' E 014°14'1713.1
2016-Apr-20 14:16N 40°50' E 014°15'1621.9
2016-Apr-20 13:34N 40°35' E 014°15'7 6.6
2016-Apr-20 12:33N 40°38' E 014°23'8 7.7
2016-Apr-20 11:33N 40°33' E 014°14'0 0.0
2016-Apr-20 10:33N 40°33' E 014°14'1713.7
2016-Apr-20 09:20N 40°50' E 014°16'1721.5
2016-Apr-20 08:34N 40°33' E 014°14'0 0.0
2016-Apr-20 07:34N 40°33' E 014°14'1313.2
2016-Apr-20 06:33N 40°42' E 014°28'1 0.9
2016-Apr-20 05:33N 40°42' E 014°29'0 0.0
2016-Apr-19 15:19N 40°42' E 014°29'6 7.9
2016-Apr-19 14:34N 40°38' E 014°23'8 7.6
2016-Apr-19 13:33N 40°33' E 014°14'1711.2
2016-Apr-19 12:04N 40°50' E 014°16'0 0.1
2016-Apr-19 11:28N 40°50' E 014°16'1718.4
2016-Apr-19 10:33N 40°33' E 014°14'0 0.0
2016-Apr-19 09:31N 40°33' E 014°14'0 0.0
2016-Apr-19 08:33N 40°33' E 014°14'8 7.7
2016-Apr-19 07:33N 40°38' E 014°23'0 0.2
2016-Apr-19 06:34N 40°38' E 014°23'6 5.8
2016-Apr-19 05:33N 40°42' E 014°29'0 0.0
2016-Apr-19 04:33N 40°42' E 014°29'0 0.0
2016-Apr-18 16:33N 40°42' E 014°28'1413.7
2016-Apr-18 15:33N 40°33' E 014°14'  

Dump ship's entire track history